sensor_id;sensor_type;location;lat;lon;timestamp;P1;durP1;ratioP1;P2;durP2;ratioP2
74626;SDS011;63132;52.268;5.192;2023-08-12T00:00:15;8.30;;;5.25;;
74626;SDS011;63132;52.268;5.192;2023-08-12T00:02:41;13.73;;;5.63;;
74626;SDS011;63132;52.268;5.192;2023-08-12T00:05:07;12.75;;;5.25;;
74626;SDS011;63132;52.268;5.192;2023-08-12T00:07:34;11.52;;;5.78;;
74626;SDS011;63132;52.268;5.192;2023-08-12T00:10:02;10.38;;;4.97;;
74626;SDS011;63132;52.268;5.192;2023-08-12T00:12:29;16.27;;;5.40;;
74626;SDS011;63132;52.268;5.192;2023-08-12T00:14:56;14.13;;;5.90;;
74626;SDS011;63132;52.268;5.192;2023-08-12T00:17:22;13.18;;;4.88;;
74626;SDS011;63132;52.268;5.192;2023-08-12T00:19:47;14.90;;;4.80;;
74626;SDS011;63132;52.268;5.192;2023-08-12T00:22:12;12.40;;;4.20;;
74626;SDS011;63132;52.268;5.192;2023-08-12T00:24:38;10.38;;;4.78;;
74626;SDS011;63132;52.268;5.192;2023-08-12T00:27:05;12.65;;;5.03;;
74626;SDS011;63132;52.268;5.192;2023-08-12T00:29:32;12.57;;;5.07;;
74626;SDS011;63132;52.268;5.192;2023-08-12T00:31:57;9.32;;;4.65;;
74626;SDS011;63132;52.268;5.192;2023-08-12T00:34:23;19.08;;;5.55;;
74626;SDS011;63132;52.268;5.192;2023-08-12T00:36:48;11.45;;;5.70;;
74626;SDS011;63132;52.268;5.192;2023-08-12T00:39:14;13.00;;;5.97;;
74626;SDS011;63132;52.268;5.192;2023-08-12T00:41:39;17.10;;;6.05;;
74626;SDS011;63132;52.268;5.192;2023-08-12T00:44:04;11.43;;;5.82;;
74626;SDS011;63132;52.268;5.192;2023-08-12T00:46:30;14.20;;;5.78;;
74626;SDS011;63132;52.268;5.192;2023-08-12T00:48:55;14.02;;;6.75;;
74626;SDS011;63132;52.268;5.192;2023-08-12T00:51:21;10.55;;;6.35;;
74626;SDS011;63132;52.268;5.192;2023-08-12T00:53:47;12.18;;;5.70;;
74626;SDS011;63132;52.268;5.192;2023-08-12T00:56:14;13.25;;;6.40;;
74626;SDS011;63132;52.268;5.192;2023-08-12T00:58:41;11.45;;;5.88;;
74626;SDS011;63132;52.268;5.192;2023-08-12T01:01:06;10.60;;;6.00;;
74626;SDS011;63132;52.268;5.192;2023-08-12T01:03:32;12.50;;;5.70;;
74626;SDS011;63132;52.268;5.192;2023-08-12T01:05:58;14.98;;;6.60;;
74626;SDS011;63132;52.268;5.192;2023-08-12T01:08:24;12.68;;;6.90;;
74626;SDS011;63132;52.268;5.192;2023-08-12T01:10:57;14.27;;;6.55;;
74626;SDS011;63132;52.268;5.192;2023-08-12T01:16:12;9.73;;;5.88;;
74626;SDS011;63132;52.268;5.192;2023-08-12T01:18:40;13.90;;;6.82;;
74626;SDS011;63132;52.268;5.192;2023-08-12T01:21:06;17.27;;;6.75;;
74626;SDS011;63132;52.268;5.192;2023-08-12T01:23:37;15.48;;;7.03;;
74626;SDS011;63132;52.268;5.192;2023-08-12T01:26:04;16.13;;;7.20;;
74626;SDS011;63132;52.268;5.192;2023-08-12T01:28:29;16.88;;;7.78;;
74626;SDS011;63132;52.268;5.192;2023-08-12T01:30:57;19.52;;;7.90;;
74626;SDS011;63132;52.268;5.192;2023-08-12T01:33:39;16.13;;;8.10;;
74626;SDS011;63132;52.268;5.192;2023-08-12T01:36:09;17.10;;;8.10;;
74626;SDS011;63132;52.268;5.192;2023-08-12T01:38:39;13.02;;;7.72;;
74626;SDS011;63132;52.268;5.192;2023-08-12T01:41:07;17.65;;;8.27;;
74626;SDS011;63132;52.268;5.192;2023-08-12T01:43:37;20.77;;;8.55;;
74626;SDS011;63132;52.268;5.192;2023-08-12T01:46:04;16.38;;;7.93;;
74626;SDS011;63132;52.268;5.192;2023-08-12T01:48:29;19.80;;;8.75;;
74626;SDS011;63132;52.268;5.192;2023-08-12T01:50:54;16.90;;;8.40;;
74626;SDS011;63132;52.268;5.192;2023-08-12T01:53:20;16.00;;;8.45;;
74626;SDS011;63132;52.268;5.192;2023-08-12T01:55:45;17.83;;;8.05;;
74626;SDS011;63132;52.268;5.192;2023-08-12T01:58:11;20.23;;;9.73;;
74626;SDS011;63132;52.268;5.192;2023-08-12T02:00:36;23.48;;;8.13;;
74626;SDS011;63132;52.268;5.192;2023-08-12T02:03:02;18.30;;;8.68;;
74626;SDS011;63132;52.268;5.192;2023-08-12T02:05:27;19.88;;;7.63;;
74626;SDS011;63132;52.268;5.192;2023-08-12T02:07:52;17.17;;;9.10;;
74626;SDS011;63132;52.268;5.192;2023-08-12T02:10:18;22.77;;;7.97;;
74626;SDS011;63132;52.268;5.192;2023-08-12T02:12:43;18.23;;;8.20;;
74626;SDS011;63132;52.268;5.192;2023-08-12T02:15:09;20.63;;;8.73;;
74626;SDS011;63132;52.268;5.192;2023-08-12T02:17:34;18.85;;;8.43;;
74626;SDS011;63132;52.268;5.192;2023-08-12T02:20:00;20.55;;;9.15;;
74626;SDS011;63132;52.268;5.192;2023-08-12T02:22:25;18.88;;;9.85;;
74626;SDS011;63132;52.268;5.192;2023-08-12T02:24:50;17.40;;;8.63;;
74626;SDS011;63132;52.268;5.192;2023-08-12T02:27:16;25.70;;;10.52;;
74626;SDS011;63132;52.268;5.192;2023-08-12T02:29:41;21.00;;;8.98;;
74626;SDS011;63132;52.268;5.192;2023-08-12T02:32:06;15.15;;;7.57;;
74626;SDS011;63132;52.268;5.192;2023-08-12T02:34:32;20.13;;;8.40;;
74626;SDS011;63132;52.268;5.192;2023-08-12T02:36:57;21.75;;;9.35;;
74626;SDS011;63132;52.268;5.192;2023-08-12T02:39:22;17.90;;;9.15;;
74626;SDS011;63132;52.268;5.192;2023-08-12T02:41:48;20.85;;;8.45;;
74626;SDS011;63132;52.268;5.192;2023-08-12T02:44:13;19.50;;;9.68;;
74626;SDS011;63132;52.268;5.192;2023-08-12T02:46:39;18.30;;;8.73;;
74626;SDS011;63132;52.268;5.192;2023-08-12T02:49:04;18.70;;;8.82;;
74626;SDS011;63132;52.268;5.192;2023-08-12T02:51:30;19.42;;;9.45;;
74626;SDS011;63132;52.268;5.192;2023-08-12T02:53:55;15.77;;;8.15;;
74626;SDS011;63132;52.268;5.192;2023-08-12T02:56:20;15.93;;;8.23;;
74626;SDS011;63132;52.268;5.192;2023-08-12T02:58:46;21.48;;;9.88;;
74626;SDS011;63132;52.268;5.192;2023-08-12T03:01:12;18.75;;;10.27;;
74626;SDS011;63132;52.268;5.192;2023-08-12T03:03:37;22.48;;;10.38;;
74626;SDS011;63132;52.268;5.192;2023-08-12T03:06:03;20.80;;;10.95;;
74626;SDS011;63132;52.268;5.192;2023-08-12T03:08:28;20.92;;;10.75;;
74626;SDS011;63132;52.268;5.192;2023-08-12T03:11:03;21.75;;;10.95;;
74626;SDS011;63132;52.268;5.192;2023-08-12T03:13:28;23.80;;;13.13;;
74626;SDS011;63132;52.268;5.192;2023-08-12T03:15:54;20.02;;;11.52;;
74626;SDS011;63132;52.268;5.192;2023-08-12T03:18:20;25.23;;;13.25;;
74626;SDS011;63132;52.268;5.192;2023-08-12T03:20:45;25.13;;;13.00;;
74626;SDS011;63132;52.268;5.192;2023-08-12T03:23:10;27.80;;;11.55;;
74626;SDS011;63132;52.268;5.192;2023-08-12T03:25:36;24.10;;;11.25;;
74626;SDS011;63132;52.268;5.192;2023-08-12T03:28:01;22.05;;;12.05;;
74626;SDS011;63132;52.268;5.192;2023-08-12T03:30:26;21.90;;;11.43;;
74626;SDS011;63132;52.268;5.192;2023-08-12T03:32:52;18.17;;;10.80;;
74626;SDS011;63132;52.268;5.192;2023-08-12T03:35:18;22.30;;;11.90;;
74626;SDS011;63132;52.268;5.192;2023-08-12T03:37:43;26.55;;;11.73;;
74626;SDS011;63132;52.268;5.192;2023-08-12T03:40:09;25.85;;;12.50;;
74626;SDS011;63132;52.268;5.192;2023-08-12T03:42:35;20.27;;;13.15;;
74626;SDS011;63132;52.268;5.192;2023-08-12T03:45:00;22.85;;;12.82;;
74626;SDS011;63132;52.268;5.192;2023-08-12T03:47:25;20.67;;;12.30;;
74626;SDS011;63132;52.268;5.192;2023-08-12T03:49:51;26.13;;;12.27;;
74626;SDS011;63132;52.268;5.192;2023-08-12T03:52:16;22.90;;;12.85;;
74626;SDS011;63132;52.268;5.192;2023-08-12T03:54:42;26.13;;;13.63;;
74626;SDS011;63132;52.268;5.192;2023-08-12T03:57:07;19.85;;;12.50;;
74626;SDS011;63132;52.268;5.192;2023-08-12T03:59:32;25.75;;;13.82;;
74626;SDS011;63132;52.268;5.192;2023-08-12T04:01:58;28.08;;;14.68;;
74626;SDS011;63132;52.268;5.192;2023-08-12T04:04:23;21.83;;;13.70;;
74626;SDS011;63132;52.268;5.192;2023-08-12T04:06:49;24.83;;;13.80;;
74626;SDS011;63132;52.268;5.192;2023-08-12T04:09:19;28.42;;;14.07;;
74626;SDS011;63132;52.268;5.192;2023-08-12T04:11:46;25.45;;;13.40;;
74626;SDS011;63132;52.268;5.192;2023-08-12T04:14:12;33.20;;;15.07;;
74626;SDS011;63132;52.268;5.192;2023-08-12T04:16:38;27.85;;;13.50;;
74626;SDS011;63132;52.268;5.192;2023-08-12T04:19:04;30.60;;;15.73;;
74626;SDS011;63132;52.268;5.192;2023-08-12T04:21:30;24.95;;;13.90;;
74626;SDS011;63132;52.268;5.192;2023-08-12T04:23:55;29.30;;;14.30;;
74626;SDS011;63132;52.268;5.192;2023-08-12T04:26:20;29.92;;;14.70;;
74626;SDS011;63132;52.268;5.192;2023-08-12T04:28:46;32.88;;;16.55;;
74626;SDS011;63132;52.268;5.192;2023-08-12T04:31:11;38.75;;;16.92;;
74626;SDS011;63132;52.268;5.192;2023-08-12T04:33:36;30.58;;;15.82;;
74626;SDS011;63132;52.268;5.192;2023-08-12T04:36:02;29.48;;;16.08;;
74626;SDS011;63132;52.268;5.192;2023-08-12T04:38:27;25.25;;;15.43;;
74626;SDS011;63132;52.268;5.192;2023-08-12T04:40:53;30.48;;;16.95;;
74626;SDS011;63132;52.268;5.192;2023-08-12T04:43:19;29.17;;;15.85;;
74626;SDS011;63132;52.268;5.192;2023-08-12T04:45:45;31.25;;;17.55;;
74626;SDS011;63132;52.268;5.192;2023-08-12T04:48:12;35.97;;;16.60;;
74626;SDS011;63132;52.268;5.192;2023-08-12T04:50:37;32.15;;;16.35;;
74626;SDS011;63132;52.268;5.192;2023-08-12T04:53:03;27.88;;;16.23;;
74626;SDS011;63132;52.268;5.192;2023-08-12T04:55:29;22.60;;;15.68;;
74626;SDS011;63132;52.268;5.192;2023-08-12T04:57:55;30.02;;;16.58;;
74626;SDS011;63132;52.268;5.192;2023-08-12T05:00:21;30.08;;;15.45;;
74626;SDS011;63132;52.268;5.192;2023-08-12T05:02:47;35.33;;;16.55;;
74626;SDS011;63132;52.268;5.192;2023-08-12T05:05:12;32.47;;;16.83;;
74626;SDS011;63132;52.268;5.192;2023-08-12T05:07:38;32.67;;;17.38;;
74626;SDS011;63132;52.268;5.192;2023-08-12T05:10:03;31.45;;;17.83;;
74626;SDS011;63132;52.268;5.192;2023-08-12T05:12:29;33.83;;;16.95;;
74626;SDS011;63132;52.268;5.192;2023-08-12T05:14:55;35.22;;;18.35;;
74626;SDS011;63132;52.268;5.192;2023-08-12T05:17:20;35.38;;;18.65;;
74626;SDS011;63132;52.268;5.192;2023-08-12T05:19:46;38.28;;;16.92;;
74626;SDS011;63132;52.268;5.192;2023-08-12T05:22:11;28.05;;;17.90;;
74626;SDS011;63132;52.268;5.192;2023-08-12T05:24:36;31.65;;;18.52;;
74626;SDS011;63132;52.268;5.192;2023-08-12T05:27:02;30.65;;;17.00;;
74626;SDS011;63132;52.268;5.192;2023-08-12T05:29:29;31.98;;;17.40;;
74626;SDS011;63132;52.268;5.192;2023-08-12T05:31:54;33.83;;;17.63;;
74626;SDS011;63132;52.268;5.192;2023-08-12T05:34:19;32.78;;;17.90;;
74626;SDS011;63132;52.268;5.192;2023-08-12T05:36:45;26.27;;;15.23;;
74626;SDS011;63132;52.268;5.192;2023-08-12T05:39:10;34.88;;;18.05;;
74626;SDS011;63132;52.268;5.192;2023-08-12T05:41:36;32.83;;;18.10;;
74626;SDS011;63132;52.268;5.192;2023-08-12T05:44:01;29.98;;;16.75;;
74626;SDS011;63132;52.268;5.192;2023-08-12T05:46:26;31.75;;;17.95;;
74626;SDS011;63132;52.268;5.192;2023-08-12T05:48:52;27.95;;;16.75;;
74626;SDS011;63132;52.268;5.192;2023-08-12T05:51:17;28.23;;;18.23;;
74626;SDS011;63132;52.268;5.192;2023-08-12T05:53:42;33.85;;;17.55;;
74626;SDS011;63132;52.268;5.192;2023-08-12T05:56:08;32.67;;;18.27;;
74626;SDS011;63132;52.268;5.192;2023-08-12T05:58:33;32.28;;;18.45;;
74626;SDS011;63132;52.268;5.192;2023-08-12T06:00:58;26.85;;;16.50;;
74626;SDS011;63132;52.268;5.192;2023-08-12T06:03:24;31.92;;;15.85;;
74626;SDS011;63132;52.268;5.192;2023-08-12T06:05:49;24.63;;;16.23;;
74626;SDS011;63132;52.268;5.192;2023-08-12T06:08:14;26.90;;;16.13;;
74626;SDS011;63132;52.268;5.192;2023-08-12T06:10:40;32.28;;;17.90;;
74626;SDS011;63132;52.268;5.192;2023-08-12T06:13:06;26.05;;;17.73;;
74626;SDS011;63132;52.268;5.192;2023-08-12T06:15:32;28.33;;;17.88;;
74626;SDS011;63132;52.268;5.192;2023-08-12T06:17:58;35.20;;;18.92;;
74626;SDS011;63132;52.268;5.192;2023-08-12T06:20:24;29.50;;;17.10;;
74626;SDS011;63132;52.268;5.192;2023-08-12T06:22:50;28.55;;;18.73;;
74626;SDS011;63132;52.268;5.192;2023-08-12T06:25:16;31.45;;;19.23;;
74626;SDS011;63132;52.268;5.192;2023-08-12T06:27:41;29.27;;;19.13;;
74626;SDS011;63132;52.268;5.192;2023-08-12T06:30:08;24.02;;;17.05;;
74626;SDS011;63132;52.268;5.192;2023-08-12T06:32:34;30.85;;;19.13;;
74626;SDS011;63132;52.268;5.192;2023-08-12T06:35:00;27.70;;;16.73;;
74626;SDS011;63132;52.268;5.192;2023-08-12T06:37:25;24.65;;;15.43;;
74626;SDS011;63132;52.268;5.192;2023-08-12T06:39:50;24.58;;;16.25;;
74626;SDS011;63132;52.268;5.192;2023-08-12T06:42:16;25.52;;;15.23;;
74626;SDS011;63132;52.268;5.192;2023-08-12T06:44:41;20.80;;;13.07;;
74626;SDS011;63132;52.268;5.192;2023-08-12T06:47:06;19.23;;;11.23;;
74626;SDS011;63132;52.268;5.192;2023-08-12T06:49:32;14.60;;;10.50;;
74626;SDS011;63132;52.268;5.192;2023-08-12T06:51:57;21.23;;;9.60;;
74626;SDS011;63132;52.268;5.192;2023-08-12T06:54:22;20.35;;;9.30;;
74626;SDS011;63132;52.268;5.192;2023-08-12T06:56:48;17.40;;;8.52;;
74626;SDS011;63132;52.268;5.192;2023-08-12T06:59:14;14.60;;;7.35;;
74626;SDS011;63132;52.268;5.192;2023-08-12T07:01:39;13.23;;;8.00;;
74626;SDS011;63132;52.268;5.192;2023-08-12T07:04:05;13.35;;;7.43;;
74626;SDS011;63132;52.268;5.192;2023-08-12T07:06:30;10.82;;;6.78;;
74626;SDS011;63132;52.268;5.192;2023-08-12T07:08:55;13.20;;;8.38;;
74626;SDS011;63132;52.268;5.192;2023-08-12T07:11:21;12.10;;;8.00;;
74626;SDS011;63132;52.268;5.192;2023-08-12T07:13:46;9.50;;;7.15;;
74626;SDS011;63132;52.268;5.192;2023-08-12T07:16:12;12.13;;;7.80;;
74626;SDS011;63132;52.268;5.192;2023-08-12T07:18:37;11.80;;;6.80;;
74626;SDS011;63132;52.268;5.192;2023-08-12T07:21:02;9.10;;;6.30;;
74626;SDS011;63132;52.268;5.192;2023-08-12T07:23:28;13.63;;;6.20;;
74626;SDS011;63132;52.268;5.192;2023-08-12T07:25:53;9.73;;;5.93;;
74626;SDS011;63132;52.268;5.192;2023-08-12T07:28:19;7.55;;;5.07;;
74626;SDS011;63132;52.268;5.192;2023-08-12T07:30:44;7.82;;;4.63;;
74626;SDS011;63132;52.268;5.192;2023-08-12T07:33:09;6.47;;;4.18;;
74626;SDS011;63132;52.268;5.192;2023-08-12T07:35:35;6.90;;;3.83;;
74626;SDS011;63132;52.268;5.192;2023-08-12T07:38:00;8.07;;;4.22;;
74626;SDS011;63132;52.268;5.192;2023-08-12T07:40:25;7.38;;;4.15;;
74626;SDS011;63132;52.268;5.192;2023-08-12T07:42:51;7.70;;;3.63;;
74626;SDS011;63132;52.268;5.192;2023-08-12T07:45:16;10.65;;;4.45;;
74626;SDS011;63132;52.268;5.192;2023-08-12T07:47:42;8.75;;;4.35;;
74626;SDS011;63132;52.268;5.192;2023-08-12T07:50:07;5.30;;;3.25;;
74626;SDS011;63132;52.268;5.192;2023-08-12T07:52:33;5.30;;;3.22;;
74626;SDS011;63132;52.268;5.192;2023-08-12T07:54:58;6.63;;;3.72;;
74626;SDS011;63132;52.268;5.192;2023-08-12T07:57:23;5.88;;;3.50;;
74626;SDS011;63132;52.268;5.192;2023-08-12T07:59:51;5.30;;;3.03;;
74626;SDS011;63132;52.268;5.192;2023-08-12T08:02:17;5.38;;;2.90;;
74626;SDS011;63132;52.268;5.192;2023-08-12T08:04:42;5.60;;;3.38;;
74626;SDS011;63132;52.268;5.192;2023-08-12T08:07:08;8.85;;;2.75;;
74626;SDS011;63132;52.268;5.192;2023-08-12T08:09:33;4.43;;;2.95;;
74626;SDS011;63132;52.268;5.192;2023-08-12T08:11:59;6.07;;;2.90;;
74626;SDS011;63132;52.268;5.192;2023-08-12T08:14:25;4.00;;;2.58;;
74626;SDS011;63132;52.268;5.192;2023-08-12T08:16:51;3.05;;;2.30;;
74626;SDS011;63132;52.268;5.192;2023-08-12T08:19:17;6.03;;;2.20;;
74626;SDS011;63132;52.268;5.192;2023-08-12T08:21:43;4.15;;;2.38;;
74626;SDS011;63132;52.268;5.192;2023-08-12T08:24:09;2.55;;;1.65;;
74626;SDS011;63132;52.268;5.192;2023-08-12T08:26:36;3.85;;;2.20;;
74626;SDS011;63132;52.268;5.192;2023-08-12T08:29:01;3.72;;;2.00;;
74626;SDS011;63132;52.268;5.192;2023-08-12T08:31:28;3.58;;;1.80;;
74626;SDS011;63132;52.268;5.192;2023-08-12T08:33:53;3.83;;;1.77;;
74626;SDS011;63132;52.268;5.192;2023-08-12T08:36:18;1.90;;;1.30;;
74626;SDS011;63132;52.268;5.192;2023-08-12T08:38:44;2.72;;;1.45;;
74626;SDS011;63132;52.268;5.192;2023-08-12T08:41:10;4.82;;;2.03;;
74626;SDS011;63132;52.268;5.192;2023-08-12T08:43:36;5.15;;;2.15;;
74626;SDS011;63132;52.268;5.192;2023-08-12T08:46:02;5.38;;;1.90;;
74626;SDS011;63132;52.268;5.192;2023-08-12T08:48:28;5.57;;;2.00;;
74626;SDS011;63132;52.268;5.192;2023-08-12T08:50:54;6.05;;;2.20;;
74626;SDS011;63132;52.268;5.192;2023-08-12T08:53:20;6.18;;;1.80;;
74626;SDS011;63132;52.268;5.192;2023-08-12T08:55:46;6.40;;;2.28;;
74626;SDS011;63132;52.268;5.192;2023-08-12T08:58:12;11.38;;;2.80;;
74626;SDS011;63132;52.268;5.192;2023-08-12T09:00:38;11.63;;;2.30;;
74626;SDS011;63132;52.268;5.192;2023-08-12T09:03:05;10.63;;;2.25;;
74626;SDS011;63132;52.268;5.192;2023-08-12T09:05:31;8.82;;;2.22;;
74626;SDS011;63132;52.268;5.192;2023-08-12T09:07:59;10.43;;;2.60;;
74626;SDS011;63132;52.268;5.192;2023-08-12T09:10:25;12.65;;;3.17;;
74626;SDS011;63132;52.268;5.192;2023-08-12T09:12:52;10.93;;;2.90;;
74626;SDS011;63132;52.268;5.192;2023-08-12T09:15:18;8.95;;;2.42;;
74626;SDS011;63132;52.268;5.192;2023-08-12T09:17:44;12.13;;;2.42;;
74626;SDS011;63132;52.268;5.192;2023-08-12T09:20:09;11.00;;;2.50;;
74626;SDS011;63132;52.268;5.192;2023-08-12T09:22:41;6.80;;;2.30;;
74626;SDS011;63132;52.268;5.192;2023-08-12T09:25:09;8.70;;;2.30;;
74626;SDS011;63132;52.268;5.192;2023-08-12T09:27:36;8.15;;;2.08;;
74626;SDS011;63132;52.268;5.192;2023-08-12T09:30:04;7.97;;;2.30;;
74626;SDS011;63132;52.268;5.192;2023-08-12T09:32:30;11.25;;;2.17;;
74626;SDS011;63132;52.268;5.192;2023-08-12T09:34:56;9.45;;;2.13;;
74626;SDS011;63132;52.268;5.192;2023-08-12T09:37:22;5.47;;;2.38;;
74626;SDS011;63132;52.268;5.192;2023-08-12T09:39:49;8.20;;;2.50;;
74626;SDS011;63132;52.268;5.192;2023-08-12T09:42:16;10.00;;;2.13;;
74626;SDS011;63132;52.268;5.192;2023-08-12T09:44:42;7.03;;;1.88;;
74626;SDS011;63132;52.268;5.192;2023-08-12T09:47:08;9.98;;;2.65;;
74626;SDS011;63132;52.268;5.192;2023-08-12T09:49:34;7.57;;;1.80;;
74626;SDS011;63132;52.268;5.192;2023-08-12T09:52:03;9.35;;;2.03;;
74626;SDS011;63132;52.268;5.192;2023-08-12T09:54:30;5.55;;;2.28;;
74626;SDS011;63132;52.268;5.192;2023-08-12T09:56:59;6.78;;;2.08;;
74626;SDS011;63132;52.268;5.192;2023-08-12T09:59:32;9.63;;;2.20;;
74626;SDS011;63132;52.268;5.192;2023-08-12T10:01:59;6.18;;;1.90;;
74626;SDS011;63132;52.268;5.192;2023-08-12T10:04:29;6.47;;;2.22;;
74626;SDS011;63132;52.268;5.192;2023-08-12T10:07:10;8.65;;;1.90;;
74626;SDS011;63132;52.268;5.192;2023-08-12T10:09:37;11.38;;;2.50;;
74626;SDS011;63132;52.268;5.192;2023-08-12T10:12:05;8.35;;;1.95;;
74626;SDS011;63132;52.268;5.192;2023-08-12T10:14:32;6.80;;;1.77;;
74626;SDS011;63132;52.268;5.192;2023-08-12T10:16:58;9.75;;;2.42;;
74626;SDS011;63132;52.268;5.192;2023-08-12T10:19:24;4.30;;;1.67;;
74626;SDS011;63132;52.268;5.192;2023-08-12T10:21:50;6.47;;;2.22;;
74626;SDS011;63132;52.268;5.192;2023-08-12T10:24:21;9.30;;;2.65;;
74626;SDS011;63132;52.268;5.192;2023-08-12T10:26:48;8.07;;;1.92;;
74626;SDS011;63132;52.268;5.192;2023-08-12T10:29:15;8.90;;;2.15;;
74626;SDS011;63132;52.268;5.192;2023-08-12T10:31:41;11.40;;;1.83;;
74626;SDS011;63132;52.268;5.192;2023-08-12T10:34:17;8.15;;;2.13;;
74626;SDS011;63132;52.268;5.192;2023-08-12T10:36:43;9.65;;;2.00;;
74626;SDS011;63132;52.268;5.192;2023-08-12T10:39:09;13.50;;;2.35;;
74626;SDS011;63132;52.268;5.192;2023-08-12T10:41:37;11.23;;;2.78;;
74626;SDS011;63132;52.268;5.192;2023-08-12T10:44:05;10.32;;;2.00;;
74626;SDS011;63132;52.268;5.192;2023-08-12T10:49:07;9.60;;;2.40;;
74626;SDS011;63132;52.268;5.192;2023-08-12T10:51:41;11.07;;;2.22;;
74626;SDS011;63132;52.268;5.192;2023-08-12T10:54:13;7.57;;;1.80;;
74626;SDS011;63132;52.268;5.192;2023-08-12T10:57:14;8.07;;;1.95;;
74626;SDS011;63132;52.268;5.192;2023-08-12T11:02:17;11.27;;;2.30;;
74626;SDS011;63132;52.268;5.192;2023-08-12T11:07:41;8.93;;;1.90;;
74626;SDS011;63132;52.268;5.192;2023-08-12T11:10:32;7.07;;;1.75;;
74626;SDS011;63132;52.268;5.192;2023-08-12T11:12:59;10.18;;;1.90;;
74626;SDS011;63132;52.268;5.192;2023-08-12T11:15:35;7.57;;;2.53;;
74626;SDS011;63132;52.268;5.192;2023-08-12T11:18:08;12.32;;;2.83;;
74626;SDS011;63132;52.268;5.192;2023-08-12T11:20:35;15.60;;;2.38;;
74626;SDS011;63132;52.268;5.192;2023-08-12T11:23:02;8.27;;;1.98;;
74626;SDS011;63132;52.268;5.192;2023-08-12T11:25:29;10.07;;;2.20;;
74626;SDS011;63132;52.268;5.192;2023-08-12T11:27:55;9.65;;;2.63;;
74626;SDS011;63132;52.268;5.192;2023-08-12T11:30:21;10.40;;;2.22;;
74626;SDS011;63132;52.268;5.192;2023-08-12T11:32:48;10.02;;;2.88;;
74626;SDS011;63132;52.268;5.192;2023-08-12T11:35:15;13.90;;;2.08;;
74626;SDS011;63132;52.268;5.192;2023-08-12T11:37:42;7.43;;;2.20;;
74626;SDS011;63132;52.268;5.192;2023-08-12T11:40:10;9.75;;;2.08;;
74626;SDS011;63132;52.268;5.192;2023-08-12T11:42:39;6.05;;;1.70;;
74626;SDS011;63132;52.268;5.192;2023-08-12T11:45:06;8.10;;;2.53;;
74626;SDS011;63132;52.268;5.192;2023-08-12T11:47:33;11.40;;;2.10;;
74626;SDS011;63132;52.268;5.192;2023-08-12T11:50:01;10.43;;;2.17;;
74626;SDS011;63132;52.268;5.192;2023-08-12T11:52:30;12.32;;;2.63;;
74626;SDS011;63132;52.268;5.192;2023-08-12T11:54:56;18.98;;;3.05;;
74626;SDS011;63132;52.268;5.192;2023-08-12T11:57:22;9.68;;;2.67;;
74626;SDS011;63132;52.268;5.192;2023-08-12T11:59:49;11.60;;;1.95;;
74626;SDS011;63132;52.268;5.192;2023-08-12T12:02:15;14.90;;;2.13;;
74626;SDS011;63132;52.268;5.192;2023-08-12T12:04:41;10.93;;;2.20;;
74626;SDS011;63132;52.268;5.192;2023-08-12T12:07:20;9.75;;;2.33;;
74626;SDS011;63132;52.268;5.192;2023-08-12T12:09:52;11.63;;;2.67;;
74626;SDS011;63132;52.268;5.192;2023-08-12T12:12:24;6.95;;;1.90;;
74626;SDS011;63132;52.268;5.192;2023-08-12T12:14:51;13.13;;;3.88;;
74626;SDS011;63132;52.268;5.192;2023-08-12T12:17:20;12.10;;;2.50;;
74626;SDS011;63132;52.268;5.192;2023-08-12T12:19:46;12.70;;;2.25;;
74626;SDS011;63132;52.268;5.192;2023-08-12T12:22:11;9.80;;;2.08;;
74626;SDS011;63132;52.268;5.192;2023-08-12T12:24:46;11.55;;;2.78;;
74626;SDS011;63132;52.268;5.192;2023-08-12T12:27:15;13.30;;;2.25;;
74626;SDS011;63132;52.268;5.192;2023-08-12T12:29:40;16.25;;;2.97;;
74626;SDS011;63132;52.268;5.192;2023-08-12T12:32:06;12.65;;;2.40;;
74626;SDS011;63132;52.268;5.192;2023-08-12T12:34:32;13.65;;;2.30;;
74626;SDS011;63132;52.268;5.192;2023-08-12T12:36:57;12.05;;;3.03;;
74626;SDS011;63132;52.268;5.192;2023-08-12T12:39:22;15.65;;;2.88;;
74626;SDS011;63132;52.268;5.192;2023-08-12T12:41:48;11.32;;;2.83;;
74626;SDS011;63132;52.268;5.192;2023-08-12T12:44:13;13.60;;;3.05;;
74626;SDS011;63132;52.268;5.192;2023-08-12T12:46:39;15.75;;;2.70;;
74626;SDS011;63132;52.268;5.192;2023-08-12T12:49:04;17.15;;;3.65;;
74626;SDS011;63132;52.268;5.192;2023-08-12T12:51:30;16.02;;;3.22;;
74626;SDS011;63132;52.268;5.192;2023-08-12T12:53:55;14.30;;;3.03;;
74626;SDS011;63132;52.268;5.192;2023-08-12T12:56:21;12.80;;;2.78;;
74626;SDS011;63132;52.268;5.192;2023-08-12T12:58:46;12.18;;;2.83;;
74626;SDS011;63132;52.268;5.192;2023-08-12T13:01:12;12.68;;;2.50;;
74626;SDS011;63132;52.268;5.192;2023-08-12T13:03:37;17.70;;;3.00;;
74626;SDS011;63132;52.268;5.192;2023-08-12T13:06:02;10.82;;;2.38;;
74626;SDS011;63132;52.268;5.192;2023-08-12T13:08:28;13.65;;;2.50;;
74626;SDS011;63132;52.268;5.192;2023-08-12T13:10:56;11.20;;;2.40;;
74626;SDS011;63132;52.268;5.192;2023-08-12T13:13:21;11.80;;;2.20;;
74626;SDS011;63132;52.268;5.192;2023-08-12T13:15:46;12.20;;;2.90;;
74626;SDS011;63132;52.268;5.192;2023-08-12T13:18:12;8.20;;;2.53;;
74626;SDS011;63132;52.268;5.192;2023-08-12T13:20:38;14.10;;;2.33;;
74626;SDS011;63132;52.268;5.192;2023-08-12T13:23:04;9.80;;;2.30;;
74626;SDS011;63132;52.268;5.192;2023-08-12T13:25:30;8.05;;;2.30;;
74626;SDS011;63132;52.268;5.192;2023-08-12T13:27:57;15.63;;;2.50;;
74626;SDS011;63132;52.268;5.192;2023-08-12T13:30:23;12.75;;;2.88;;
74626;SDS011;63132;52.268;5.192;2023-08-12T13:32:49;12.63;;;2.47;;
74626;SDS011;63132;52.268;5.192;2023-08-12T13:35:14;8.98;;;2.25;;
74626;SDS011;63132;52.268;5.192;2023-08-12T13:37:40;9.30;;;3.00;;
74626;SDS011;63132;52.268;5.192;2023-08-12T13:40:05;12.93;;;2.63;;
74626;SDS011;63132;52.268;5.192;2023-08-12T13:42:31;9.88;;;2.58;;
74626;SDS011;63132;52.268;5.192;2023-08-12T13:44:57;13.68;;;2.65;;
74626;SDS011;63132;52.268;5.192;2023-08-12T13:47:22;10.38;;;2.33;;
74626;SDS011;63132;52.268;5.192;2023-08-12T13:49:47;11.10;;;2.97;;
74626;SDS011;63132;52.268;5.192;2023-08-12T13:52:13;12.80;;;2.40;;
74626;SDS011;63132;52.268;5.192;2023-08-12T13:54:38;8.30;;;2.28;;
74626;SDS011;63132;52.268;5.192;2023-08-12T13:57:04;7.50;;;2.42;;
74626;SDS011;63132;52.268;5.192;2023-08-12T13:59:29;12.98;;;2.85;;
74626;SDS011;63132;52.268;5.192;2023-08-12T14:01:55;9.20;;;2.05;;
74626;SDS011;63132;52.268;5.192;2023-08-12T14:04:20;8.77;;;2.25;;
74626;SDS011;63132;52.268;5.192;2023-08-12T14:06:46;9.32;;;2.58;;
74626;SDS011;63132;52.268;5.192;2023-08-12T14:09:11;10.35;;;1.88;;
74626;SDS011;63132;52.268;5.192;2023-08-12T14:11:38;12.48;;;2.60;;
74626;SDS011;63132;52.268;5.192;2023-08-12T14:14:07;13.95;;;2.65;;
74626;SDS011;63132;52.268;5.192;2023-08-12T14:16:32;8.65;;;2.50;;
74626;SDS011;63132;52.268;5.192;2023-08-12T14:18:58;11.13;;;2.67;;
74626;SDS011;63132;52.268;5.192;2023-08-12T14:21:23;19.25;;;3.10;;
74626;SDS011;63132;52.268;5.192;2023-08-12T14:23:48;10.63;;;2.40;;
74626;SDS011;63132;52.268;5.192;2023-08-12T14:26:14;10.85;;;2.33;;
74626;SDS011;63132;52.268;5.192;2023-08-12T14:28:39;16.73;;;2.63;;
74626;SDS011;63132;52.268;5.192;2023-08-12T14:31:05;8.57;;;2.42;;
74626;SDS011;63132;52.268;5.192;2023-08-12T14:33:30;9.52;;;2.55;;
74626;SDS011;63132;52.268;5.192;2023-08-12T14:35:58;10.32;;;2.20;;
74626;SDS011;63132;52.268;5.192;2023-08-12T14:38:24;11.82;;;2.70;;
74626;SDS011;63132;52.268;5.192;2023-08-12T14:40:49;10.98;;;2.60;;